createdAt,value
2022-08-28T00:01:57.538Z,6.20
2022-08-28T00:04:24.748Z,6.60
2022-08-28T00:06:51.668Z,6.20
2022-08-28T00:09:19.677Z,5.80
2022-08-28T00:11:47.156Z,6.00
2022-08-28T00:14:14.674Z,5.00
2022-08-28T00:16:42.537Z,5.60
2022-08-28T00:19:11.060Z,5.40
2022-08-28T00:21:38.190Z,5.40
2022-08-28T00:24:05.276Z,6.20
2022-08-28T00:26:50.746Z,6.50
2022-08-28T00:29:17.772Z,6.10
2022-08-28T00:31:44.745Z,6.90
2022-08-28T00:34:12.777Z,6.50
2022-08-28T00:36:41.463Z,6.20
2022-08-28T00:39:08.567Z,5.30
2022-08-28T00:41:36.717Z,4.90
2022-08-28T00:44:17.131Z,6.20
2022-08-28T00:46:46.427Z,6.10
2022-08-28T00:49:14.782Z,5.80
2022-08-28T00:52:00.168Z,7.00
2022-08-28T00:54:27.401Z,6.40
2022-08-28T00:56:55.228Z,6.30
2022-08-28T00:59:23.873Z,7.00
2022-08-28T01:01:55.010Z,5.20
2022-08-28T01:04:22.822Z,5.90
2022-08-28T01:06:53.688Z,5.50
2022-08-28T01:09:22.694Z,6.50
2022-08-28T01:11:50.121Z,6.20
2022-08-28T01:14:20.304Z,7.30
2022-08-28T01:16:49.287Z,5.80
2022-08-28T01:19:20.641Z,5.80
2022-08-28T01:21:59.671Z,6.60
2022-08-28T01:24:27.131Z,6.60
2022-08-28T01:26:54.168Z,4.50
2022-08-28T01:29:21.128Z,4.80
2022-08-28T01:31:48.876Z,6.00
2022-08-28T01:34:15.737Z,6.10
2022-08-28T01:36:42.914Z,5.50
2022-08-28T01:39:15.948Z,5.90
2022-08-28T01:41:45.888Z,6.50
2022-08-28T01:44:14.740Z,6.30
2022-08-28T01:46:44.934Z,6.80
2022-08-28T01:49:12.093Z,5.60
2022-08-28T01:51:41.220Z,5.10
2022-08-28T01:54:08.975Z,6.10
2022-08-28T01:56:37.223Z,5.40
2022-08-28T01:59:06.806Z,6.10
2022-08-28T02:01:34.453Z,5.80
2022-08-28T02:04:04.554Z,6.00
2022-08-28T02:06:32.116Z,6.20
2022-08-28T02:09:01.020Z,6.70
2022-08-28T02:11:30.874Z,6.80
2022-08-28T02:13:57.762Z,5.20
2022-08-28T02:16:24.868Z,5.10
2022-08-28T02:18:52.444Z,5.70
2022-08-28T02:21:19.244Z,5.40
2022-08-28T02:23:46.531Z,5.80
2022-08-28T02:26:13.971Z,6.30
2022-08-28T02:28:41.350Z,6.20
2022-08-28T02:31:09.429Z,5.90
2022-08-28T02:33:41.713Z,6.20
2022-08-28T02:36:09.640Z,4.40
2022-08-28T02:38:37.003Z,4.90
2022-08-28T02:41:05.363Z,5.20
2022-08-28T02:43:32.534Z,5.30
2022-08-28T02:45:59.701Z,6.20
2022-08-28T02:48:31.788Z,6.10
2022-08-28T02:51:00.757Z,5.60
2022-08-28T02:53:28.308Z,6.10
2022-08-28T02:55:56.042Z,6.30
2022-08-28T02:58:22.979Z,4.80
2022-08-28T03:00:49.954Z,5.00
2022-08-28T03:03:17.277Z,5.50
2022-08-28T03:05:44.872Z,5.60
2022-08-28T03:08:12.344Z,6.70
2022-08-28T03:10:39.653Z,6.10
2022-08-28T03:13:06.754Z,5.70
2022-08-28T03:15:33.767Z,5.60
2022-08-28T03:18:00.763Z,6.40
2022-08-28T03:20:27.834Z,4.40
2022-08-28T03:23:13.671Z,4.90
2022-08-28T03:25:40.916Z,5.60
2022-08-28T03:28:08.224Z,5.30
2022-08-28T03:30:35.350Z,5.70
2022-08-28T03:33:03.160Z,5.10
2022-08-28T03:35:30.481Z,5.40
2022-08-28T03:37:57.496Z,5.90
2022-08-28T03:40:24.798Z,5.60
2022-08-28T03:42:53.599Z,4.20
2022-08-28T03:45:21.341Z,4.50
2022-08-28T03:47:48.487Z,5.10
2022-08-28T03:50:16.816Z,5.10
2022-08-28T03:52:43.759Z,5.50
2022-08-28T03:55:11.893Z,5.60
2022-08-28T03:57:39.131Z,5.40
2022-08-28T04:00:08.314Z,5.80
2022-08-28T04:02:42.800Z,6.00
2022-08-28T04:05:10.132Z,4.10
2022-08-28T04:07:37.908Z,4.10
2022-08-28T04:10:05.374Z,5.40
2022-08-28T04:12:35.276Z,4.90
2022-08-28T04:15:06.360Z,4.80
2022-08-28T04:17:35.079Z,5.40
2022-08-28T04:20:02.384Z,5.40
2022-08-28T04:22:30.108Z,4.90
2022-08-28T04:24:57.136Z,5.70
2022-08-28T04:27:24.575Z,3.90
2022-08-28T04:29:51.481Z,4.00
2022-08-28T04:32:18.415Z,5.00
2022-08-28T04:34:45.723Z,4.30
2022-08-28T04:37:12.624Z,5.20
2022-08-28T04:39:40.447Z,4.90
2022-08-28T04:42:07.537Z,4.80
2022-08-28T04:44:35.770Z,5.00
2022-08-28T04:47:02.828Z,5.30
2022-08-28T04:49:35.294Z,3.80
2022-08-28T04:52:02.526Z,4.30
2022-08-28T04:54:29.628Z,4.40
2022-08-28T04:56:56.456Z,4.60
2022-08-28T04:59:24.100Z,4.70
2022-08-28T05:01:52.179Z,4.70
2022-08-28T05:04:19.903Z,5.10
2022-08-28T05:06:47.594Z,5.10
2022-08-28T05:09:16.045Z,5.50
2022-08-28T05:11:44.373Z,4.40
2022-08-28T05:14:15.826Z,4.10
2022-08-28T05:16:53.271Z,4.50
2022-08-28T05:19:20.955Z,4.30
2022-08-28T05:21:48.164Z,4.50
2022-08-28T05:24:15.263Z,5.20
2022-08-28T05:26:42.538Z,5.30
2022-08-28T05:29:10.664Z,5.60
2022-08-28T05:31:41.501Z,4.80
2022-08-28T05:34:09.683Z,4.80
2022-08-28T05:36:39.611Z,5.10
2022-08-28T05:39:08.512Z,3.90
2022-08-28T05:41:35.573Z,3.80
2022-08-28T05:44:06.210Z,4.70
2022-08-28T05:46:33.571Z,4.60
2022-08-28T05:49:00.654Z,5.00
2022-08-28T05:51:28.520Z,4.60
2022-08-28T05:53:56.293Z,5.10
2022-08-28T05:56:25.828Z,4.90
2022-08-28T05:58:52.798Z,5.00
2022-08-28T06:01:23.850Z,4.90
2022-08-28T06:03:59.138Z,4.80
2022-08-28T06:06:27.230Z,5.30
2022-08-28T06:09:03.174Z,5.10
2022-08-28T06:11:31.127Z,4.90
2022-08-28T06:14:01.472Z,3.60
2022-08-28T06:16:33.751Z,3.90
2022-08-28T06:19:01.431Z,4.20
2022-08-28T06:21:29.361Z,4.90
2022-08-28T06:23:56.453Z,4.90
2022-08-28T06:26:23.972Z,5.20
2022-08-28T06:28:53.214Z,4.60
2022-08-28T06:31:24.411Z,4.40
2022-08-28T06:33:54.618Z,5.10
2022-08-28T06:36:22.264Z,5.20
2022-08-28T06:38:49.628Z,6.00
2022-08-28T06:41:16.743Z,9.40
2022-08-28T06:43:44.185Z,7.90
2022-08-28T06:46:11.454Z,7.80
2022-08-28T06:48:38.439Z,7.20
2022-08-28T06:51:07.225Z,6.50
2022-08-28T06:53:34.562Z,6.70
2022-08-28T06:56:09.992Z,6.30
2022-08-28T06:58:40.939Z,5.90
2022-08-28T07:01:14.262Z,7.00
2022-08-28T07:03:44.435Z,7.10
2022-08-28T07:06:13.252Z,6.70
2022-08-28T07:08:42.867Z,6.50
2022-08-28T07:11:15.638Z,6.30
2022-08-28T07:13:42.915Z,6.60
2022-08-28T07:16:10.449Z,5.70
2022-08-28T07:18:38.307Z,4.50
2022-08-28T07:21:09.092Z,4.60
2022-08-28T07:23:38.928Z,5.20
2022-08-28T07:26:07.243Z,5.10
2022-08-28T07:28:34.494Z,5.20
2022-08-28T07:31:03.938Z,5.50
2022-08-28T07:33:31.083Z,6.10
2022-08-28T07:35:58.199Z,6.20
2022-08-28T07:38:27.472Z,6.30
2022-08-28T07:40:55.074Z,6.50
2022-08-28T07:43:40.718Z,7.30
2022-08-28T07:46:08.763Z,7.50
2022-08-28T07:48:36.754Z,6.10
2022-08-28T07:51:04.394Z,6.80
2022-08-28T07:53:36.259Z,7.20
2022-08-28T07:56:04.858Z,6.10
2022-08-28T07:58:33.572Z,6.30
2022-08-28T08:01:01.322Z,6.90
2022-08-28T08:03:30.592Z,8.10
2022-08-28T08:06:00.095Z,7.80
2022-08-28T08:08:26.984Z,8.40
2022-08-28T08:11:06.895Z,6.80
2022-08-28T08:13:39.302Z,5.80
2022-08-28T08:16:11.115Z,7.20
2022-08-28T08:18:39.424Z,7.50
2022-08-28T08:21:07.543Z,8.10
2022-08-28T08:23:36.142Z,7.90
2022-08-28T08:26:05.484Z,8.00
2022-08-28T08:28:34.679Z,7.50
2022-08-28T08:31:15.866Z,9.40
2022-08-28T08:33:46.397Z,8.90
2022-08-28T08:36:14.856Z,7.50
2022-08-28T08:41:39.863Z,6.60
2022-08-28T08:44:32.539Z,7.00
2022-08-28T08:47:26.187Z,5.70
2022-08-28T08:50:00.807Z,6.10
2022-08-28T08:52:33.415Z,6.70
2022-08-28T08:55:10.238Z,10.90
2022-08-28T08:57:42.047Z,10.00
2022-08-28T09:00:15.766Z,5.70
2022-08-28T09:03:06.710Z,4.90
2022-08-28T09:05:57.094Z,5.80
2022-08-28T09:08:35.231Z,5.30
2022-08-28T09:11:07.361Z,7.50
2022-08-28T09:13:54.426Z,6.70
2022-08-28T09:16:28.668Z,6.20
2022-08-28T09:18:57.005Z,4.70
2022-08-28T09:23:58.221Z,4.90
2022-08-28T09:26:25.520Z,4.60
2022-08-28T09:29:01.415Z,4.90
2022-08-28T09:31:39.022Z,6.60
2022-08-28T09:34:26.081Z,5.80
2022-08-28T09:36:53.931Z,4.50
2022-08-28T09:39:27.211Z,4.20
2022-08-28T09:42:27.481Z,5.00
2022-08-28T09:45:20.742Z,5.20
2022-08-28T09:47:49.799Z,5.80
2022-08-28T09:50:35.710Z,6.70
2022-08-28T09:53:08.787Z,6.90
2022-08-28T09:55:41.962Z,5.00
2022-08-28T09:58:09.041Z,5.30
2022-08-28T10:00:38.303Z,6.10
2022-08-28T10:03:21.588Z,8.30
2022-08-28T10:06:14.212Z,7.70
2022-08-28T10:08:55.124Z,5.30
2022-08-28T10:11:35.289Z,4.60
2022-08-28T10:14:09.976Z,4.00
2022-08-28T10:16:46.739Z,4.20
2022-08-28T10:19:21.307Z,4.40
2022-08-28T10:22:05.136Z,4.70
2022-08-28T10:24:36.125Z,4.60
2022-08-28T10:27:23.658Z,4.60
2022-08-28T10:29:55.691Z,4.40
2022-08-28T10:32:28.634Z,4.20
2022-08-28T10:35:01.976Z,4.50
2022-08-28T10:37:38.485Z,4.20
2022-08-28T10:40:11.611Z,5.60
2022-08-28T10:42:42.127Z,4.30
2022-08-28T10:45:16.125Z,5.00
2022-08-28T10:47:46.234Z,4.60
2022-08-28T10:50:25.471Z,4.60
2022-08-28T10:53:02.848Z,5.30
2022-08-28T10:55:45.111Z,4.10
2022-08-28T10:58:24.242Z,3.90
2022-08-28T11:00:57.527Z,4.50
2022-08-28T11:03:36.874Z,4.10
2022-08-28T11:06:08.792Z,4.50
2022-08-28T11:08:36.224Z,4.40
2022-08-28T11:11:04.957Z,4.40
2022-08-28T11:13:56.319Z,4.50
2022-08-28T11:16:30.174Z,4.10
2022-08-28T11:19:14.254Z,4.60
2022-08-28T11:21:55.130Z,4.80
2022-08-28T11:24:40.853Z,3.90
2022-08-28T11:27:18.666Z,3.90
2022-08-28T11:30:11.467Z,4.00
2022-08-28T11:32:52.547Z,4.10
2022-08-28T11:38:05.294Z,3.40
2022-08-28T11:40:32.449Z,4.00
2022-08-28T11:43:16.021Z,3.50
2022-08-28T11:45:46.651Z,3.70
2022-08-28T11:48:33.496Z,3.60
2022-08-28T11:51:04.663Z,3.50
2022-08-28T11:53:51.955Z,3.60
2022-08-28T11:56:41.532Z,3.50
2022-08-28T11:59:35.320Z,4.20
2022-08-28T12:02:38.644Z,4.60
2022-08-28T12:05:07.831Z,4.00
2022-08-28T12:07:39.503Z,4.60
2022-08-28T12:10:31.072Z,7.00
2022-08-28T12:13:01.943Z,5.10
2022-08-28T12:15:29.737Z,4.90
2022-08-28T12:18:13.173Z,3.40
2022-08-28T12:21:01.121Z,4.40
2022-08-28T12:23:32.860Z,4.30
2022-08-28T12:26:07.496Z,4.30
2022-08-28T12:28:43.970Z,4.00
2022-08-28T12:31:46.327Z,4.20
2022-08-28T12:34:22.360Z,4.90
2022-08-28T12:36:57.259Z,4.20
2022-08-28T12:39:24.213Z,4.30
2022-08-28T12:41:51.353Z,3.60
2022-08-28T12:44:22.239Z,5.00
2022-08-28T12:46:49.707Z,4.10
2022-08-28T12:49:27.148Z,4.00
2022-08-28T12:52:17.267Z,4.30
2022-08-28T12:54:45.615Z,4.20
2022-08-28T12:59:45.117Z,5.00
2022-08-28T13:02:20.724Z,4.50
2022-08-28T13:04:53.729Z,4.70
2022-08-28T13:07:34.032Z,4.80
2022-08-28T13:10:14.793Z,5.20
2022-08-28T13:12:55.963Z,5.70
2022-08-28T13:15:43.859Z,4.90
2022-08-28T13:18:10.940Z,4.80
2022-08-28T13:20:38.110Z,5.90
2022-08-28T13:23:05.166Z,7.40
2022-08-28T13:25:34.786Z,6.40
2022-08-28T13:28:04.567Z,7.30
2022-08-28T13:30:33.830Z,7.80
2022-08-28T13:33:04.691Z,7.10
2022-08-28T13:35:36.270Z,8.50
2022-08-28T13:38:06.772Z,9.40
2022-08-28T13:40:58.029Z,8.20
2022-08-28T13:43:27.576Z,9.10
2022-08-28T13:45:54.573Z,10.20
2022-08-28T13:48:23.601Z,10.40
2022-08-28T13:50:59.348Z,10.70
2022-08-28T13:53:26.249Z,12.10
2022-08-28T13:55:53.167Z,12.20
2022-08-28T13:58:20.201Z,12.90
2022-08-28T14:02:44.067Z,13.80
2022-08-28T14:05:12.216Z,12.70
2022-08-28T14:07:39.720Z,12.50
2022-08-28T14:10:08.211Z,16.80
2022-08-28T14:12:35.530Z,14.80
2022-08-28T14:15:02.700Z,13.60
2022-08-28T14:17:29.966Z,14.90
2022-08-28T14:19:57.494Z,16.20
2022-08-28T14:22:24.448Z,13.90
2022-08-28T14:24:51.295Z,14.30
2022-08-28T14:27:18.445Z,14.40
2022-08-28T14:29:45.388Z,13.80
2022-08-28T14:32:12.436Z,14.10
2022-08-28T14:34:41.416Z,14.30
2022-08-28T14:37:08.500Z,14.60
2022-08-28T14:39:36.222Z,13.50
2022-08-28T14:42:06.563Z,17.00
2022-08-28T14:44:40.254Z,15.90
2022-08-28T14:47:07.134Z,14.70
2022-08-28T14:49:34.142Z,16.80
2022-08-28T14:52:01.027Z,18.10
2022-08-28T14:54:28.129Z,18.00
2022-08-28T14:56:55.162Z,19.60
2022-08-28T14:59:24.684Z,20.60
2022-08-28T15:01:52.988Z,18.30
2022-08-28T15:04:22.916Z,19.70
2022-08-28T15:06:51.367Z,19.40
2022-08-28T15:09:19.440Z,20.00
2022-08-28T15:11:46.567Z,21.70
2022-08-28T15:14:13.602Z,20.00
2022-08-28T15:16:43.966Z,22.40
2022-08-28T15:19:12.516Z,20.50
2022-08-28T15:21:44.598Z,19.80
2022-08-28T15:24:11.815Z,20.60
2022-08-28T15:26:40.320Z,22.30
2022-08-28T15:29:07.455Z,23.00
2022-08-28T15:31:37.162Z,22.70
2022-08-28T15:34:06.416Z,23.40
2022-08-28T15:36:41.014Z,23.80
2022-08-28T15:39:26.934Z,22.20
2022-08-28T15:41:53.820Z,18.70
2022-08-28T15:44:21.127Z,18.10
2022-08-28T15:46:53.075Z,17.50
2022-08-28T15:49:24.032Z,17.20
2022-08-28T15:51:51.665Z,17.10
2022-08-28T15:54:19.659Z,18.30
2022-08-28T15:56:46.835Z,17.70
2022-08-28T15:59:17.821Z,19.90
2022-08-28T16:01:45.526Z,23.50
2022-08-28T16:04:13.770Z,23.60
2022-08-28T16:06:42.003Z,26.60
2022-08-28T16:09:09.482Z,30.10
2022-08-28T16:11:41.030Z,28.10
2022-08-28T16:14:08.465Z,22.30
2022-08-28T16:16:35.609Z,18.60
2022-08-28T16:19:03.382Z,21.20
2022-08-28T16:21:31.178Z,24.80
2022-08-28T16:23:58.023Z,25.20
2022-08-28T16:26:26.919Z,22.50
2022-08-28T16:28:54.052Z,20.90
2022-08-28T16:31:22.152Z,26.50
2022-08-28T16:33:49.849Z,25.70
2022-08-28T16:36:16.905Z,24.20
2022-08-28T16:38:45.888Z,22.50
2022-08-28T16:41:14.188Z,19.70
2022-08-28T16:43:42.421Z,18.20
2022-08-28T16:46:11.596Z,19.20
2022-08-28T16:48:40.382Z,18.10
2022-08-28T16:51:07.423Z,16.50
2022-08-28T16:53:34.471Z,16.50
2022-08-28T16:56:01.739Z,16.30
2022-08-28T16:58:28.844Z,15.90
2022-08-28T17:00:56.770Z,16.90
2022-08-28T17:03:26.555Z,15.70
2022-08-28T17:05:55.563Z,15.80
2022-08-28T17:08:22.760Z,15.50
2022-08-28T17:10:50.735Z,17.00
2022-08-28T17:13:18.108Z,17.90
2022-08-28T17:15:45.133Z,19.30
2022-08-28T17:18:12.273Z,18.70
2022-08-28T17:20:58.295Z,18.90
2022-08-28T17:23:25.192Z,18.30
2022-08-28T17:25:52.237Z,19.40
2022-08-28T17:28:19.394Z,18.50
2022-08-28T17:30:46.681Z,18.90
2022-08-28T17:33:13.953Z,19.10
2022-08-28T17:35:42.178Z,19.30
2022-08-28T17:38:09.467Z,17.80
2022-08-28T17:40:36.984Z,18.90
2022-08-28T17:43:04.170Z,18.20
2022-08-28T17:45:31.598Z,17.30
2022-08-28T17:47:58.703Z,18.00
2022-08-28T17:50:25.787Z,18.90
2022-08-28T17:52:52.678Z,18.80
2022-08-28T17:55:19.791Z,18.60
2022-08-28T17:57:47.242Z,18.00
2022-08-28T18:00:16.454Z,17.50
2022-08-28T18:02:44.580Z,19.20
2022-08-28T18:05:12.279Z,18.30
2022-08-28T18:07:39.456Z,19.70
2022-08-28T18:10:06.739Z,20.30
2022-08-28T18:12:36.488Z,19.40
2022-08-28T18:15:03.974Z,18.90
2022-08-28T18:17:31.184Z,19.50
2022-08-28T18:19:58.469Z,21.30
2022-08-28T18:22:29.651Z,21.10
2022-08-28T18:24:57.244Z,22.80
2022-08-28T18:27:26.857Z,23.00
2022-08-28T18:29:54.189Z,23.50
2022-08-28T18:32:22.270Z,22.60
2022-08-28T18:34:50.036Z,22.30
2022-08-28T18:37:17.477Z,22.50
2022-08-28T18:39:47.394Z,20.10
2022-08-28T18:42:15.004Z,20.00
2022-08-28T18:44:42.421Z,19.30
2022-08-28T18:47:09.761Z,18.80
2022-08-28T18:49:37.685Z,17.90
2022-08-28T18:52:05.089Z,18.20
2022-08-28T18:54:32.438Z,17.90
2022-08-28T18:57:03.390Z,16.00
2022-08-28T18:59:32.710Z,15.10
2022-08-28T19:02:00.933Z,15.70
2022-08-28T19:04:27.968Z,15.80
2022-08-28T19:06:55.204Z,15.60
2022-08-28T19:09:22.608Z,15.80
2022-08-28T19:11:49.750Z,14.90
2022-08-28T19:14:17.106Z,14.10
2022-08-28T19:16:44.768Z,14.10
2022-08-28T19:19:11.912Z,14.20
2022-08-28T19:21:39.373Z,14.70
2022-08-28T19:24:06.937Z,13.50
2022-08-28T19:26:34.178Z,11.60
2022-08-28T19:29:03.272Z,12.20
2022-08-28T19:31:34.171Z,11.50
2022-08-28T19:34:02.192Z,12.30
2022-08-28T19:36:30.684Z,12.50
2022-08-28T19:38:58.693Z,12.20
2022-08-28T19:43:54.075Z,12.30
2022-08-28T19:46:21.354Z,12.10
2022-08-28T19:48:49.581Z,13.30
2022-08-28T19:51:22.456Z,13.30
2022-08-28T19:53:57.319Z,12.10
2022-08-28T19:56:27.602Z,12.20
2022-08-28T20:01:22.251Z,12.60
2022-08-28T20:03:49.403Z,12.70
2022-08-28T20:06:16.438Z,12.30
2022-08-28T20:08:44.515Z,12.20
2022-08-28T20:11:17.484Z,12.30
2022-08-28T20:13:44.338Z,12.10
2022-08-28T20:16:11.322Z,11.80
2022-08-28T20:18:39.298Z,12.40
2022-08-28T20:21:08.659Z,12.80
2022-08-28T20:23:35.680Z,12.50
2022-08-28T20:26:02.984Z,12.20
2022-08-28T20:28:31.748Z,12.80
2022-08-28T20:33:26.522Z,11.70
2022-08-28T20:36:00.955Z,12.00
2022-08-28T20:38:27.888Z,11.90
2022-08-28T20:41:03.588Z,12.30
2022-08-28T20:43:31.604Z,11.30
2022-08-28T20:45:59.075Z,12.60
2022-08-28T20:48:28.103Z,12.40
2022-08-28T20:50:55.226Z,9.90
2022-08-28T20:53:37.151Z,11.30
2022-08-28T20:56:07.057Z,11.40
2022-08-28T20:58:33.916Z,10.90
2022-08-28T21:01:00.858Z,12.20
2022-08-28T21:03:28.508Z,12.70
2022-08-28T21:05:55.629Z,12.00
2022-08-28T21:08:22.738Z,12.70
2022-08-28T21:10:52.866Z,11.90
2022-08-28T21:13:19.853Z,10.30
2022-08-28T21:15:47.832Z,11.90
2022-08-28T21:18:15.277Z,11.60
2022-08-28T21:20:42.542Z,12.20
2022-08-28T21:23:10.768Z,12.30
2022-08-28T21:25:40.458Z,8.80
2022-08-28T21:28:07.593Z,9.50
2022-08-28T21:30:34.961Z,10.40
2022-08-28T21:33:02.107Z,9.70
2022-08-28T21:35:29.102Z,10.90
2022-08-28T21:37:55.934Z,10.90
2022-08-28T21:40:22.922Z,10.70
2022-08-28T21:42:49.928Z,11.00
2022-08-28T21:45:17.597Z,11.30
2022-08-28T21:47:45.282Z,10.30
2022-08-28T21:50:12.451Z,7.40
2022-08-28T21:52:39.583Z,8.10
2022-08-28T21:55:09.154Z,8.80
2022-08-28T21:57:37.008Z,8.00
2022-08-28T22:00:09.390Z,8.70
2022-08-28T22:02:36.282Z,8.80
2022-08-28T22:05:03.586Z,8.80
2022-08-28T22:07:30.871Z,7.00
2022-08-28T22:09:58.231Z,7.30
2022-08-28T22:12:25.230Z,7.60
2022-08-28T22:14:52.188Z,7.40
2022-08-28T22:17:19.763Z,7.90
2022-08-28T22:19:46.923Z,8.10
2022-08-28T22:22:33.951Z,8.20
2022-08-28T22:25:02.125Z,5.20
2022-08-28T22:27:31.935Z,7.00
2022-08-28T22:29:58.876Z,7.00
2022-08-28T22:32:27.024Z,6.70
2022-08-28T22:34:54.792Z,7.30
2022-08-28T22:37:23.438Z,7.90
2022-08-28T22:42:17.193Z,7.10
2022-08-28T22:44:44.248Z,7.40
2022-08-28T22:47:11.367Z,5.20
2022-08-28T22:49:39.555Z,5.90
2022-08-28T22:54:37.061Z,5.80
2022-08-28T22:57:05.945Z,7.00
2022-08-28T22:59:34.534Z,6.80
2022-08-28T23:04:28.430Z,7.10
2022-08-28T23:06:55.446Z,5.40
2022-08-28T23:09:22.664Z,6.40
2022-08-28T23:11:49.781Z,6.50
2022-08-28T23:14:17.456Z,6.40
2022-08-28T23:16:45.075Z,6.90
2022-08-28T23:19:13.531Z,6.90
2022-08-28T23:21:44.190Z,7.60
2022-08-28T23:24:13.149Z,6.70
2022-08-28T23:26:40.416Z,5.30
2022-08-28T23:29:07.258Z,5.40
2022-08-28T23:31:34.583Z,6.60
2022-08-28T23:34:02.012Z,6.40
2022-08-28T23:36:29.707Z,6.60
2022-08-28T23:38:56.824Z,7.30
2022-08-28T23:41:24.487Z,6.80
2022-08-28T23:43:51.980Z,7.20
2022-08-28T23:46:20.064Z,5.40
2022-08-28T23:48:49.544Z,6.10
2022-08-28T23:51:17.338Z,6.60
2022-08-28T23:53:45.209Z,7.00
2022-08-28T23:56:12.867Z,7.00
2022-08-28T23:58:40.437Z,7.00
